sensor_id;sensor_type;location;lat;lon;timestamp;pressure;altitude;pressure_sealevel;temperature;humidity
40171;BME280;37650;52.790;18.268;2022-10-31T00:00:08;100851.82;;;9.87;100.00
40171;BME280;37650;52.790;18.268;2022-10-31T00:03:53;100856.33;;;9.89;100.00
40171;BME280;37650;52.790;18.268;2022-10-31T00:07:15;100853.02;;;9.89;100.00
40171;BME280;37650;52.790;18.268;2022-10-31T00:10:40;100851.25;;;9.89;100.00
40171;BME280;37650;52.790;18.268;2022-10-31T00:14:01;100851.03;;;9.85;100.00
40171;BME280;37650;52.790;18.268;2022-10-31T00:17:23;100847.65;;;9.80;100.00
40171;BME280;37650;52.790;18.268;2022-10-31T00:20:43;100847.34;;;9.78;100.00
40171;BME280;37650;52.790;18.268;2022-10-31T00:24:05;100851.77;;;9.69;100.00
40171;BME280;37650;52.790;18.268;2022-10-31T00:27:26;100852.07;;;9.65;100.00
40171;BME280;37650;52.790;18.268;2022-10-31T00:30:49;100856.81;;;9.64;100.00
40171;BME280;37650;52.790;18.268;2022-10-31T00:34:10;100860.02;;;9.62;100.00
40171;BME280;37650;52.790;18.268;2022-10-31T00:37:31;100860.33;;;9.57;100.00
40171;BME280;37650;52.790;18.268;2022-10-31T00:40:52;100856.73;;;9.54;100.00
40171;BME280;37650;52.790;18.268;2022-10-31T00:44:13;100857.70;;;9.50;100.00
40171;BME280;37650;52.790;18.268;2022-10-31T00:47:34;100854.60;;;9.41;100.00
40171;BME280;37650;52.790;18.268;2022-10-31T00:50:55;100853.71;;;9.34;100.00
40171;BME280;37650;52.790;18.268;2022-10-31T00:54:17;100855.75;;;9.37;100.00
40171;BME280;37650;52.790;18.268;2022-10-31T00:57:38;100854.84;;;9.24;100.00
40171;BME280;37650;52.790;18.268;2022-10-31T01:00:59;100850.29;;;9.17;100.00
40171;BME280;37650;52.790;18.268;2022-10-31T01:04:20;100849.13;;;9.14;100.00
40171;BME280;37650;52.790;18.268;2022-10-31T01:07:43;100849.04;;;9.10;100.00
40171;BME280;37650;52.790;18.268;2022-10-31T01:11:18;100847.06;;;9.12;100.00
40171;BME280;37650;52.790;18.268;2022-10-31T01:14:43;100848.20;;;9.09;100.00
40171;BME280;37650;52.790;18.268;2022-10-31T01:18:05;100848.98;;;9.05;100.00
40171;BME280;37650;52.790;18.268;2022-10-31T01:21:27;100847.21;;;9.06;100.00
40171;BME280;37650;52.790;18.268;2022-10-31T01:24:52;100842.33;;;9.05;100.00
40171;BME280;37650;52.790;18.268;2022-10-31T01:28:13;100844.49;;;9.03;100.00
40171;BME280;37650;52.790;18.268;2022-10-31T01:31:36;100841.91;;;9.01;100.00
40171;BME280;37650;52.790;18.268;2022-10-31T01:34:58;100848.36;;;9.02;100.00
40171;BME280;37650;52.790;18.268;2022-10-31T01:38:19;100852.70;;;9.04;100.00
40171;BME280;37650;52.790;18.268;2022-10-31T01:41:43;100853.85;;;9.07;100.00
40171;BME280;37650;52.790;18.268;2022-10-31T01:45:09;100852.05;;;9.08;100.00
40171;BME280;37650;52.790;18.268;2022-10-31T01:48:30;100850.44;;;9.11;100.00
40171;BME280;37650;52.790;18.268;2022-10-31T01:55:34;100848.89;;;9.17;100.00
40171;BME280;37650;52.790;18.268;2022-10-31T01:58:57;100847.80;;;9.18;100.00
40171;BME280;37650;52.790;18.268;2022-10-31T02:02:20;100848.79;;;9.21;100.00
40171;BME280;37650;52.790;18.268;2022-10-31T02:05:42;100849.65;;;9.21;100.00
40171;BME280;37650;52.790;18.268;2022-10-31T02:09:05;100848.11;;;9.27;100.00
40171;BME280;37650;52.790;18.268;2022-10-31T02:12:27;100852.54;;;9.32;100.00
40171;BME280;37650;52.790;18.268;2022-10-31T02:15:54;100851.33;;;9.31;100.00
40171;BME280;37650;52.790;18.268;2022-10-31T02:19:25;100854.54;;;9.29;100.00
40171;BME280;37650;52.790;18.268;2022-10-31T02:26:52;100855.12;;;9.34;100.00
40171;BME280;37650;52.790;18.268;2022-10-31T02:30:31;100853.95;;;9.39;100.00
40171;BME280;37650;52.790;18.268;2022-10-31T02:34:00;100856.08;;;9.38;100.00
40171;BME280;37650;52.790;18.268;2022-10-31T02:37:33;100858.20;;;9.44;100.00
40171;BME280;37650;52.790;18.268;2022-10-31T02:45:12;100863.88;;;9.48;100.00
40171;BME280;37650;52.790;18.268;2022-10-31T02:48:39;100871.02;;;9.50;100.00
40171;BME280;37650;52.790;18.268;2022-10-31T02:52:02;100868.13;;;9.60;100.00
40171;BME280;37650;52.790;18.268;2022-10-31T02:58:54;100865.75;;;9.70;100.00
40171;BME280;37650;52.790;18.268;2022-10-31T03:02:42;100861.91;;;9.63;100.00
40171;BME280;37650;52.790;18.268;2022-10-31T03:06:32;100857.66;;;9.58;100.00
40171;BME280;37650;52.790;18.268;2022-10-31T03:10:03;100859.41;;;9.59;100.00
40171;BME280;37650;52.790;18.268;2022-10-31T03:17:05;100863.82;;;9.64;100.00
40171;BME280;37650;52.790;18.268;2022-10-31T03:20:34;100873.12;;;9.70;100.00
40171;BME280;37650;52.790;18.268;2022-10-31T03:23:58;100879.87;;;9.73;100.00
40171;BME280;37650;52.790;18.268;2022-10-31T03:27:25;100881.19;;;9.77;100.00
40171;BME280;37650;52.790;18.268;2022-10-31T03:30:49;100886.00;;;9.81;100.00
40171;BME280;37650;52.790;18.268;2022-10-31T03:34:12;100886.57;;;9.85;100.00
40171;BME280;37650;52.790;18.268;2022-10-31T03:37:36;100884.50;;;9.91;100.00
40171;BME280;37650;52.790;18.268;2022-10-31T03:40:59;100891.36;;;9.89;100.00
40171;BME280;37650;52.790;18.268;2022-10-31T03:44:22;100893.59;;;9.85;100.00
40171;BME280;37650;52.790;18.268;2022-10-31T03:47:52;100891.20;;;9.82;100.00
40171;BME280;37650;52.790;18.268;2022-10-31T03:51:26;100893.73;;;9.79;100.00
40171;BME280;37650;52.790;18.268;2022-10-31T03:54:56;100893.78;;;9.84;100.00
40171;BME280;37650;52.790;18.268;2022-10-31T03:58:29;100891.73;;;9.89;100.00
40171;BME280;37650;52.790;18.268;2022-10-31T04:01:57;100894.80;;;9.99;100.00
40171;BME280;37650;52.790;18.268;2022-10-31T04:05:20;100896.20;;;9.99;100.00
40171;BME280;37650;52.790;18.268;2022-10-31T04:08:45;100898.02;;;9.90;100.00
40171;BME280;37650;52.790;18.268;2022-10-31T04:12:13;100898.17;;;9.84;100.00
40171;BME280;37650;52.790;18.268;2022-10-31T04:15:45;100895.15;;;9.86;100.00
40171;BME280;37650;52.790;18.268;2022-10-31T04:19:07;100894.53;;;9.83;100.00
40171;BME280;37650;52.790;18.268;2022-10-31T04:22:28;100892.65;;;9.81;100.00
40171;BME280;37650;52.790;18.268;2022-10-31T04:25:49;100888.34;;;9.78;100.00
40171;BME280;37650;52.790;18.268;2022-10-31T04:29:11;100884.30;;;9.71;100.00
40171;BME280;37650;52.790;18.268;2022-10-31T04:32:32;100888.77;;;9.67;100.00
40171;BME280;37650;52.790;18.268;2022-10-31T04:35:53;100885.67;;;9.66;100.00
40171;BME280;37650;52.790;18.268;2022-10-31T04:43:38;100893.09;;;9.50;100.00
40171;BME280;37650;52.790;18.268;2022-10-31T04:46:59;100890.09;;;9.43;100.00
40171;BME280;37650;52.790;18.268;2022-10-31T04:50:20;100894.10;;;9.36;100.00
40171;BME280;37650;52.790;18.268;2022-10-31T04:53:42;100895.89;;;9.35;100.00
40171;BME280;37650;52.790;18.268;2022-10-31T04:57:32;100897.95;;;9.29;100.00
40171;BME280;37650;52.790;18.268;2022-10-31T05:00:56;100896.34;;;9.24;100.00
40171;BME280;37650;52.790;18.268;2022-10-31T05:09:00;100891.34;;;9.28;100.00
40171;BME280;37650;52.790;18.268;2022-10-31T05:12:23;100893.95;;;9.35;100.00
40171;BME280;37650;52.790;18.268;2022-10-31T05:16:07;100887.27;;;9.36;100.00
40171;BME280;37650;52.790;18.268;2022-10-31T05:19:46;100895.17;;;9.36;100.00
40171;BME280;37650;52.790;18.268;2022-10-31T05:23:37;100893.39;;;9.38;100.00
40171;BME280;37650;52.790;18.268;2022-10-31T05:27:00;100899.05;;;9.41;100.00
40171;BME280;37650;52.790;18.268;2022-10-31T05:30:25;100896.15;;;9.31;100.00
40171;BME280;37650;52.790;18.268;2022-10-31T05:33:46;100900.19;;;9.23;100.00
40171;BME280;37650;52.790;18.268;2022-10-31T05:37:26;100902.52;;;9.20;100.00
40171;BME280;37650;52.790;18.268;2022-10-31T05:40:47;100902.70;;;9.21;100.00
40171;BME280;37650;52.790;18.268;2022-10-31T05:44:09;100911.33;;;9.26;100.00
40171;BME280;37650;52.790;18.268;2022-10-31T05:47:55;100911.91;;;9.23;100.00
40171;BME280;37650;52.790;18.268;2022-10-31T05:51:35;100916.48;;;9.30;100.00
40171;BME280;37650;52.790;18.268;2022-10-31T05:54:57;100921.91;;;9.37;100.00
40171;BME280;37650;52.790;18.268;2022-10-31T05:58:18;100926.52;;;9.43;100.00
40171;BME280;37650;52.790;18.268;2022-10-31T06:02:08;100933.69;;;9.44;100.00
40171;BME280;37650;52.790;18.268;2022-10-31T06:05:49;100930.91;;;9.49;100.00
40171;BME280;37650;52.790;18.268;2022-10-31T06:09:11;100933.52;;;9.51;100.00
40171;BME280;37650;52.790;18.268;2022-10-31T06:12:34;100935.75;;;9.52;100.00
40171;BME280;37650;52.790;18.268;2022-10-31T06:16:16;100946.73;;;9.47;100.00
40171;BME280;37650;52.790;18.268;2022-10-31T06:19:37;100949.73;;;9.46;100.00
40171;BME280;37650;52.790;18.268;2022-10-31T06:22:59;100949.31;;;9.50;100.00
40171;BME280;37650;52.790;18.268;2022-10-31T06:26:20;100949.87;;;9.48;100.00
40171;BME280;37650;52.790;18.268;2022-10-31T06:29:42;100950.59;;;9.40;100.00
40171;BME280;37650;52.790;18.268;2022-10-31T06:33:09;100952.91;;;9.38;100.00
40171;BME280;37650;52.790;18.268;2022-10-31T06:36:32;100957.57;;;9.33;100.00
40171;BME280;37650;52.790;18.268;2022-10-31T06:39:53;100958.06;;;9.42;100.00
40171;BME280;37650;52.790;18.268;2022-10-31T06:43:14;100961.81;;;9.46;100.00
40171;BME280;37650;52.790;18.268;2022-10-31T06:46:35;100964.91;;;9.49;100.00
40171;BME280;37650;52.790;18.268;2022-10-31T06:50:21;100964.10;;;9.53;100.00
40171;BME280;37650;52.790;18.268;2022-10-31T06:53:42;100964.11;;;9.53;100.00
40171;BME280;37650;52.790;18.268;2022-10-31T06:57:04;100961.86;;;9.44;100.00
40171;BME280;37650;52.790;18.268;2022-10-31T07:00:27;100960.92;;;9.40;100.00
40171;BME280;37650;52.790;18.268;2022-10-31T07:03:57;100960.59;;;9.46;100.00
40171;BME280;37650;52.790;18.268;2022-10-31T07:07:21;100970.50;;;9.49;100.00
40171;BME280;37650;52.790;18.268;2022-10-31T07:10:42;100973.02;;;9.46;100.00
40171;BME280;37650;52.790;18.268;2022-10-31T07:14:04;100975.02;;;9.43;100.00
40171;BME280;37650;52.790;18.268;2022-10-31T07:17:25;100978.76;;;9.40;100.00
40171;BME280;37650;52.790;18.268;2022-10-31T07:20:48;100988.02;;;9.41;100.00
40171;BME280;37650;52.790;18.268;2022-10-31T07:24:09;100990.06;;;9.44;100.00
40171;BME280;37650;52.790;18.268;2022-10-31T07:27:40;100985.02;;;9.49;100.00
40171;BME280;37650;52.790;18.268;2022-10-31T07:31:04;100987.11;;;9.51;100.00
40171;BME280;37650;52.790;18.268;2022-10-31T07:34:25;100988.87;;;9.58;100.00
40171;BME280;37650;52.790;18.268;2022-10-31T07:37:50;100998.95;;;9.61;100.00
40171;BME280;37650;52.790;18.268;2022-10-31T07:41:12;101000.27;;;9.56;100.00
40171;BME280;37650;52.790;18.268;2022-10-31T07:44:36;101001.10;;;9.52;100.00
40171;BME280;37650;52.790;18.268;2022-10-31T07:47:59;101008.23;;;9.53;100.00
40171;BME280;37650;52.790;18.268;2022-10-31T07:51:55;101004.89;;;9.61;100.00
40171;BME280;37650;52.790;18.268;2022-10-31T07:55:19;101002.98;;;9.61;100.00
40171;BME280;37650;52.790;18.268;2022-10-31T07:58:42;101003.47;;;9.70;100.00
40171;BME280;37650;52.790;18.268;2022-10-31T08:02:03;101006.42;;;9.78;100.00
40171;BME280;37650;52.790;18.268;2022-10-31T08:05:24;101012.17;;;9.87;100.00
40171;BME280;37650;52.790;18.268;2022-10-31T08:09:18;101017.80;;;9.94;100.00
40171;BME280;37650;52.790;18.268;2022-10-31T08:12:39;101011.13;;;10.01;100.00
40171;BME280;37650;52.790;18.268;2022-10-31T08:16:01;101012.09;;;9.98;100.00
40171;BME280;37650;52.790;18.268;2022-10-31T08:19:26;101014.89;;;9.98;100.00
40171;BME280;37650;52.790;18.268;2022-10-31T08:22:53;101021.95;;;9.95;100.00
40171;BME280;37650;52.790;18.268;2022-10-31T08:26:15;101027.94;;;10.02;100.00
40171;BME280;37650;52.790;18.268;2022-10-31T08:29:36;101028.95;;;10.04;100.00
40171;BME280;37650;52.790;18.268;2022-10-31T08:33:09;101032.85;;;10.08;100.00
40171;BME280;37650;52.790;18.268;2022-10-31T08:36:49;101037.48;;;10.20;100.00
40171;BME280;37650;52.790;18.268;2022-10-31T08:40:18;101040.14;;;10.27;100.00
40171;BME280;37650;52.790;18.268;2022-10-31T08:43:40;101032.83;;;10.25;100.00
40171;BME280;37650;52.790;18.268;2022-10-31T08:47:01;101031.23;;;10.25;100.00
40171;BME280;37650;52.790;18.268;2022-10-31T08:50:21;101024.38;;;10.32;100.00
40171;BME280;37650;52.790;18.268;2022-10-31T08:53:43;101028.52;;;10.42;100.00
40171;BME280;37650;52.790;18.268;2022-10-31T08:57:23;101026.77;;;10.55;100.00
40171;BME280;37650;52.790;18.268;2022-10-31T09:00:45;101027.45;;;10.62;100.00
40171;BME280;37650;52.790;18.268;2022-10-31T09:04:12;101027.27;;;10.57;100.00
40171;BME280;37650;52.790;18.268;2022-10-31T09:07:34;101028.48;;;10.63;100.00
40171;BME280;37650;52.790;18.268;2022-10-31T09:10:56;101031.05;;;10.66;100.00
40171;BME280;37650;52.790;18.268;2022-10-31T09:14:37;101027.98;;;10.75;100.00
40171;BME280;37650;52.790;18.268;2022-10-31T09:18:18;101028.62;;;10.90;100.00
40171;BME280;37650;52.790;18.268;2022-10-31T09:21:53;101024.98;;;11.01;100.00
40171;BME280;37650;52.790;18.268;2022-10-31T09:25:14;101026.61;;;10.99;100.00
40171;BME280;37650;52.790;18.268;2022-10-31T09:28:36;101031.50;;;11.00;100.00
40171;BME280;37650;52.790;18.268;2022-10-31T09:32:03;101036.02;;;10.95;100.00
40171;BME280;37650;52.790;18.268;2022-10-31T09:35:26;101044.98;;;11.08;100.00
40171;BME280;37650;52.790;18.268;2022-10-31T09:38:48;101042.44;;;11.16;100.00
40171;BME280;37650;52.790;18.268;2022-10-31T09:45:56;101044.05;;;11.27;100.00
40171;BME280;37650;52.790;18.268;2022-10-31T09:53:04;101041.15;;;11.36;100.00
40171;BME280;37650;52.790;18.268;2022-10-31T09:56:31;101048.70;;;11.42;100.00
40171;BME280;37650;52.790;18.268;2022-10-31T09:59:55;101050.65;;;11.47;100.00
40171;BME280;37650;52.790;18.268;2022-10-31T10:03:39;101051.94;;;11.46;100.00
40171;BME280;37650;52.790;18.268;2022-10-31T10:15:06;101048.27;;;11.68;100.00
40171;BME280;37650;52.790;18.268;2022-10-31T10:18:48;101041.80;;;11.79;100.00
40171;BME280;37650;52.790;18.268;2022-10-31T10:25:39;101045.80;;;11.91;100.00
40171;BME280;37650;52.790;18.268;2022-10-31T10:29:03;101042.38;;;11.88;100.00
40171;BME280;37650;52.790;18.268;2022-10-31T10:32:32;101042.64;;;11.96;100.00
40171;BME280;37650;52.790;18.268;2022-10-31T10:36:00;101046.18;;;11.96;100.00
40171;BME280;37650;52.790;18.268;2022-10-31T10:39:32;101044.23;;;11.96;100.00
40171;BME280;37650;52.790;18.268;2022-10-31T10:42:59;101047.64;;;12.00;100.00
40171;BME280;37650;52.790;18.268;2022-10-31T10:46:50;101045.73;;;11.93;100.00
40171;BME280;37650;52.790;18.268;2022-10-31T10:50:35;101051.20;;;11.93;100.00
40171;BME280;37650;52.790;18.268;2022-10-31T10:57:52;101053.74;;;11.85;100.00
40171;BME280;37650;52.790;18.268;2022-10-31T11:01:15;101051.14;;;11.89;100.00
40171;BME280;37650;52.790;18.268;2022-10-31T11:04:39;101047.98;;;11.94;100.00
40171;BME280;37650;52.790;18.268;2022-10-31T11:08:03;101047.30;;;12.04;100.00
40171;BME280;37650;52.790;18.268;2022-10-31T11:11:29;101042.05;;;12.09;100.00
40171;BME280;37650;52.790;18.268;2022-10-31T11:14:57;101042.48;;;12.07;100.00
40171;BME280;37650;52.790;18.268;2022-10-31T11:18:25;101041.89;;;12.03;100.00
40171;BME280;37650;52.790;18.268;2022-10-31T11:21:47;101041.53;;;12.03;100.00
40171;BME280;37650;52.790;18.268;2022-10-31T11:25:23;101040.63;;;12.04;100.00
40171;BME280;37650;52.790;18.268;2022-10-31T11:28:58;101042.46;;;12.07;100.00
40171;BME280;37650;52.790;18.268;2022-10-31T11:32:22;101044.28;;;12.05;100.00
40171;BME280;37650;52.790;18.268;2022-10-31T11:35:45;101038.49;;;12.00;100.00
40171;BME280;37650;52.790;18.268;2022-10-31T11:39:17;101040.85;;;11.97;100.00
40171;BME280;37650;52.790;18.268;2022-10-31T11:42:42;101036.94;;;11.99;100.00
40171;BME280;37650;52.790;18.268;2022-10-31T11:46:11;101039.83;;;12.02;100.00
40171;BME280;37650;52.790;18.268;2022-10-31T11:49:41;101041.60;;;12.07;100.00
40171;BME280;37650;52.790;18.268;2022-10-31T11:53:12;101043.08;;;12.10;100.00
40171;BME280;37650;52.790;18.268;2022-10-31T11:56:41;101042.30;;;12.07;100.00
40171;BME280;37650;52.790;18.268;2022-10-31T12:00:15;101043.42;;;12.10;100.00
40171;BME280;37650;52.790;18.268;2022-10-31T12:03:48;101047.58;;;12.12;100.00
40171;BME280;37650;52.790;18.268;2022-10-31T12:07:14;101044.29;;;12.05;100.00
40171;BME280;37650;52.790;18.268;2022-10-31T12:11:15;101045.52;;;12.11;100.00
40171;BME280;37650;52.790;18.268;2022-10-31T12:22:27;101042.48;;;12.28;100.00
40171;BME280;37650;52.790;18.268;2022-10-31T12:29:40;101045.60;;;12.24;100.00
40171;BME280;37650;52.790;18.268;2022-10-31T12:37:13;101044.30;;;12.27;100.00
40171;BME280;37650;52.790;18.268;2022-10-31T12:44:41;101041.69;;;12.36;100.00
40171;BME280;37650;52.790;18.268;2022-10-31T12:52:22;101037.95;;;12.37;100.00
40171;BME280;37650;52.790;18.268;2022-10-31T12:56:20;101034.10;;;12.36;100.00
40171;BME280;37650;52.790;18.268;2022-10-31T13:00:10;101032.45;;;12.44;100.00
40171;BME280;37650;52.790;18.268;2022-10-31T13:03:40;101031.29;;;12.52;100.00
40171;BME280;37650;52.790;18.268;2022-10-31T13:07:20;101026.81;;;12.49;100.00
40171;BME280;37650;52.790;18.268;2022-10-31T13:10:48;101023.17;;;12.57;100.00
40171;BME280;37650;52.790;18.268;2022-10-31T13:17:41;101019.94;;;12.59;100.00
40171;BME280;37650;52.790;18.268;2022-10-31T13:21:09;101023.23;;;12.60;100.00
40171;BME280;37650;52.790;18.268;2022-10-31T13:28:09;101022.59;;;12.54;100.00
40171;BME280;37650;52.790;18.268;2022-10-31T13:31:33;101020.84;;;12.54;100.00
40171;BME280;37650;52.790;18.268;2022-10-31T13:34:56;101018.59;;;12.57;100.00
40171;BME280;37650;52.790;18.268;2022-10-31T13:38:30;101019.84;;;12.57;100.00
40171;BME280;37650;52.790;18.268;2022-10-31T13:45:28;101010.48;;;12.58;100.00
40171;BME280;37650;52.790;18.268;2022-10-31T13:48:49;101015.50;;;12.60;100.00
40171;BME280;37650;52.790;18.268;2022-10-31T13:55:46;101011.40;;;12.51;100.00
40171;BME280;37650;52.790;18.268;2022-10-31T13:59:15;101006.31;;;12.56;100.00
40171;BME280;37650;52.790;18.268;2022-10-31T14:02:58;101006.08;;;12.58;100.00
40171;BME280;37650;52.790;18.268;2022-10-31T14:06:19;101005.75;;;12.57;100.00
40171;BME280;37650;52.790;18.268;2022-10-31T14:13:28;101009.77;;;12.43;100.00
40171;BME280;37650;52.790;18.268;2022-10-31T14:16:56;101006.13;;;12.41;100.00
40171;BME280;37650;52.790;18.268;2022-10-31T14:23:40;100995.73;;;12.42;100.00
40171;BME280;37650;52.790;18.268;2022-10-31T14:30:54;100995.78;;;12.36;100.00
40171;BME280;37650;52.790;18.268;2022-10-31T14:34:29;100992.55;;;12.32;100.00
40171;BME280;37650;52.790;18.268;2022-10-31T14:48:59;100999.61;;;12.11;100.00
40171;BME280;37650;52.790;18.268;2022-10-31T14:52:26;100996.06;;;12.12;100.00
40171;BME280;37650;52.790;18.268;2022-10-31T14:55:50;100995.88;;;12.22;100.00
40171;BME280;37650;52.790;18.268;2022-10-31T14:59:15;100994.59;;;12.29;100.00
40171;BME280;37650;52.790;18.268;2022-10-31T15:06:22;100997.27;;;12.29;100.00
40171;BME280;37650;52.790;18.268;2022-10-31T15:09:44;101001.66;;;12.29;100.00
40171;BME280;37650;52.790;18.268;2022-10-31T15:13:20;100999.56;;;12.33;100.00
40171;BME280;37650;52.790;18.268;2022-10-31T15:16:43;101008.00;;;12.33;100.00
40171;BME280;37650;52.790;18.268;2022-10-31T15:20:04;101010.69;;;12.27;100.00
40171;BME280;37650;52.790;18.268;2022-10-31T15:23:28;101013.63;;;12.17;100.00
40171;BME280;37650;52.790;18.268;2022-10-31T15:26:54;101024.74;;;12.21;100.00
40171;BME280;37650;52.790;18.268;2022-10-31T15:30:21;101031.94;;;12.22;100.00
40171;BME280;37650;52.790;18.268;2022-10-31T15:33:47;101032.88;;;12.20;100.00
40171;BME280;37650;52.790;18.268;2022-10-31T15:37:14;101033.45;;;12.19;100.00
40171;BME280;37650;52.790;18.268;2022-10-31T15:40:36;101034.33;;;12.14;100.00
40171;BME280;37650;52.790;18.268;2022-10-31T15:44:02;101037.07;;;12.11;100.00
40171;BME280;37650;52.790;18.268;2022-10-31T15:47:23;101042.38;;;12.15;100.00
40171;BME280;37650;52.790;18.268;2022-10-31T15:50:55;101040.77;;;12.16;100.00
40171;BME280;37650;52.790;18.268;2022-10-31T15:54:16;101042.73;;;12.15;100.00
40171;BME280;37650;52.790;18.268;2022-10-31T15:57:47;101042.58;;;12.14;100.00
40171;BME280;37650;52.790;18.268;2022-10-31T16:01:30;101047.20;;;12.13;100.00
40171;BME280;37650;52.790;18.268;2022-10-31T16:04:57;101050.33;;;12.08;100.00
40171;BME280;37650;52.790;18.268;2022-10-31T16:08:26;101053.53;;;12.07;100.00
40171;BME280;37650;52.790;18.268;2022-10-31T16:11:52;101049.98;;;11.98;100.00
40171;BME280;37650;52.790;18.268;2022-10-31T16:15:15;101053.48;;;12.03;100.00
40171;BME280;37650;52.790;18.268;2022-10-31T16:18:39;101057.80;;;12.06;100.00
40171;BME280;37650;52.790;18.268;2022-10-31T16:22:05;101055.09;;;12.02;100.00
40171;BME280;37650;52.790;18.268;2022-10-31T16:25:33;101058.80;;;11.97;100.00
40171;BME280;37650;52.790;18.268;2022-10-31T16:28:58;101056.95;;;11.89;100.00
40171;BME280;37650;52.790;18.268;2022-10-31T16:32:36;101056.16;;;11.81;100.00
40171;BME280;37650;52.790;18.268;2022-10-31T16:39:48;101051.87;;;11.83;100.00
40171;BME280;37650;52.790;18.268;2022-10-31T16:43:14;101055.98;;;11.81;100.00
40171;BME280;37650;52.790;18.268;2022-10-31T16:46:36;101057.06;;;11.80;100.00
40171;BME280;37650;52.790;18.268;2022-10-31T16:49:59;101050.18;;;11.74;100.00
40171;BME280;37650;52.790;18.268;2022-10-31T16:53:22;101048.66;;;11.66;100.00
40171;BME280;37650;52.790;18.268;2022-10-31T16:56:44;101053.79;;;11.59;100.00
40171;BME280;37650;52.790;18.268;2022-10-31T17:00:06;101055.17;;;11.61;100.00
40171;BME280;37650;52.790;18.268;2022-10-31T17:03:27;101060.75;;;11.74;100.00
40171;BME280;37650;52.790;18.268;2022-10-31T17:06:48;101052.46;;;11.75;100.00
40171;BME280;37650;52.790;18.268;2022-10-31T17:10:11;101056.54;;;11.67;100.00
40171;BME280;37650;52.790;18.268;2022-10-31T17:13:33;101052.29;;;11.63;100.00
40171;BME280;37650;52.790;18.268;2022-10-31T17:16:54;101049.72;;;11.66;100.00
40171;BME280;37650;52.790;18.268;2022-10-31T17:20:19;101045.36;;;11.65;100.00
40171;BME280;37650;52.790;18.268;2022-10-31T17:23:41;101045.96;;;11.63;100.00
40171;BME280;37650;52.790;18.268;2022-10-31T17:27:05;101049.37;;;11.60;100.00
40171;BME280;37650;52.790;18.268;2022-10-31T17:30:27;101046.50;;;11.63;100.00
40171;BME280;37650;52.790;18.268;2022-10-31T17:33:48;101040.95;;;11.72;100.00
40171;BME280;37650;52.790;18.268;2022-10-31T17:37:10;101042.69;;;11.78;100.00
40171;BME280;37650;52.790;18.268;2022-10-31T17:40:31;101044.00;;;11.81;100.00
40171;BME280;37650;52.790;18.268;2022-10-31T17:43:57;101043.42;;;11.83;100.00
40171;BME280;37650;52.790;18.268;2022-10-31T17:47:20;101045.55;;;11.83;100.00
40171;BME280;37650;52.790;18.268;2022-10-31T17:50:47;101041.45;;;11.85;100.00
40171;BME280;37650;52.790;18.268;2022-10-31T17:54:09;101043.84;;;11.86;100.00
40171;BME280;37650;52.790;18.268;2022-10-31T17:57:34;101042.56;;;11.88;100.00
40171;BME280;37650;52.790;18.268;2022-10-31T18:01:00;101042.02;;;11.88;100.00
40171;BME280;37650;52.790;18.268;2022-10-31T18:04:26;101040.17;;;11.91;100.00
40171;BME280;37650;52.790;18.268;2022-10-31T18:07:49;101040.56;;;11.90;100.00
40171;BME280;37650;52.790;18.268;2022-10-31T18:11:20;101038.48;;;11.89;100.00
40171;BME280;37650;52.790;18.268;2022-10-31T18:14:41;101040.48;;;11.87;100.00
40171;BME280;37650;52.790;18.268;2022-10-31T18:18:03;101040.70;;;11.86;100.00
40171;BME280;37650;52.790;18.268;2022-10-31T18:21:24;101040.08;;;11.84;100.00
40171;BME280;37650;52.790;18.268;2022-10-31T18:24:45;101037.67;;;11.87;100.00
40171;BME280;37650;52.790;18.268;2022-10-31T18:28:07;101035.35;;;11.88;100.00
40171;BME280;37650;52.790;18.268;2022-10-31T18:36:42;101027.74;;;11.72;100.00
40171;BME280;37650;52.790;18.268;2022-10-31T18:40:53;101023.73;;;11.60;100.00
40171;BME280;37650;52.790;18.268;2022-10-31T18:49:33;101021.45;;;11.55;100.00
40171;BME280;37650;52.790;18.268;2022-10-31T18:52:56;101019.66;;;11.66;100.00
40171;BME280;37650;52.790;18.268;2022-10-31T18:56:17;101011.14;;;11.64;100.00
40171;BME280;37650;52.790;18.268;2022-10-31T18:59:39;101013.88;;;11.60;100.00
40171;BME280;37650;52.790;18.268;2022-10-31T19:12:42;101013.23;;;11.82;100.00
40171;BME280;37650;52.790;18.268;2022-10-31T19:16:55;101003.45;;;11.80;100.00
40171;BME280;37650;52.790;18.268;2022-10-31T19:20:32;101011.52;;;11.74;100.00
40171;BME280;37650;52.790;18.268;2022-10-31T19:25:03;101010.78;;;11.69;100.00
40171;BME280;37650;52.790;18.268;2022-10-31T19:28:45;101012.10;;;11.78;100.00
40171;BME280;37650;52.790;18.268;2022-10-31T19:33:05;101008.28;;;11.82;100.00
40171;BME280;37650;52.790;18.268;2022-10-31T19:36:56;101014.08;;;11.99;100.00
40171;BME280;37650;52.790;18.268;2022-10-31T19:40:36;101009.87;;;11.98;100.00
40171;BME280;37650;52.790;18.268;2022-10-31T19:44:01;101003.20;;;11.92;100.00
40171;BME280;37650;52.790;18.268;2022-10-31T19:51:56;101007.86;;;11.90;100.00
40171;BME280;37650;52.790;18.268;2022-10-31T19:55:19;101009.55;;;11.87;100.00
40171;BME280;37650;52.790;18.268;2022-10-31T20:03:10;101010.65;;;11.80;100.00
40171;BME280;37650;52.790;18.268;2022-10-31T20:06:59;101011.55;;;11.79;100.00
40171;BME280;37650;52.790;18.268;2022-10-31T20:10:34;101010.80;;;11.80;100.00